Time,TemperatureF,DewpointF,PressureIn,WindDirection,WindDirectionDegrees,WindSpeedMPH,WindSpeedGustMPH,Humidity,HourlyPrecipIn,Conditions,Clouds,dailyrainin,SoftwareType,DateUTC
2013-08-21 00:02:00,63.1,36.4,29.94,SSE,162,0.0,0.0,37,0.00,,,0.00,Wunderground v.1.15,2013-08-21 06:02:00,
2013-08-21 00:08:00,63.1,36.4,29.94,South,182,0.0,0.0,37,0.00,,,0.00,Wunderground v.1.15,2013-08-21 06:08:00,
2013-08-21 00:14:00,63.1,36.4,29.94,SSW,196,0.0,0.0,37,0.00,,,0.00,Wunderground v.1.15,2013-08-21 06:14:00,
2013-08-21 00:20:00,63.2,36.5,29.94,SSW,196,0.0,0.0,37,0.00,,,0.00,Wunderground v.1.15,2013-08-21 06:20:00,
2013-08-21 00:26:00,62.3,37.0,29.94,SSW,196,0.0,0.0,39,0.00,,,0.00,Wunderground v.1.15,2013-08-21 06:26:00,
2013-08-21 00:32:00,62.6,36.6,29.94,South,189,0.0,0.0,38,0.00,,,0.00,Wunderground v.1.15,2013-08-21 06:32:00,
2013-08-21 00:38:00,62.4,36.4,29.94,South,184,0.0,0.0,38,0.00,,,0.00,Wunderground v.1.15,2013-08-21 06:38:00,
2013-08-21 00:44:00,62.3,37.0,29.94,South,186,0.0,0.0,39,0.00,,,0.00,Wunderground v.1.15,2013-08-21 06:44:00,
2013-08-21 00:50:00,62.6,36.6,29.95,South,188,0.0,1.0,38,0.00,,,0.00,Wunderground v.1.15,2013-08-21 06:50:00,
2013-08-21 00:56:00,63.1,36.4,29.95,South,179,1.0,2.0,37,0.00,,,0.00,Wunderground v.1.15,2013-08-21 06:56:00,
2013-08-21 01:02:00,63.1,36.4,29.95,SSW,213,2.0,2.0,37,0.00,,,0.00,Wunderground v.1.15,2013-08-21 07:02:00,
2013-08-21 01:08:00,62.7,36.7,29.95,South,186,0.0,2.0,38,0.00,,,0.00,Wunderground v.1.15,2013-08-21 07:08:00,
2013-08-21 01:14:00,62.3,36.4,29.95,South,186,1.0,6.0,38,0.00,,,0.00,Wunderground v.1.15,2013-08-21 07:14:00,
2013-08-21 01:20:00,62.0,36.7,29.95,South,188,3.0,4.0,39,0.00,,,0.00,Wunderground v.1.15,2013-08-21 07:20:00,
2013-08-21 01:26:00,62.1,36.2,29.95,SSW,202,5.0,8.0,38,0.00,,,0.00,Wunderground v.1.15,2013-08-21 07:26:00,
2013-08-21 01:32:00,62.4,36.4,29.95,SSW,198,5.0,6.0,38,0.00,,,0.00,Wunderground v.1.15,2013-08-21 07:32:00,
2013-08-21 01:38:00,62.1,36.2,29.95,SSW,198,2.0,6.0,38,0.00,,,0.00,Wunderground v.1.15,2013-08-21 07:38:00,
2013-08-21 01:44:00,62.3,36.4,29.95,SSW,192,0.0,1.0,38,0.00,,,0.00,Wunderground v.1.15,2013-08-21 07:44:00,
2013-08-21 01:50:00,62.7,36.0,29.95,SSW,198,0.0,0.0,37,0.00,,,0.00,Wunderground v.1.15,2013-08-21 07:50:00,
2013-08-21 01:56:00,62.7,36.7,29.95,SSW,198,0.0,0.0,38,0.00,,,0.00,Wunderground v.1.15,2013-08-21 07:56:00,
2013-08-21 02:02:00,62.1,35.5,29.96,SW,226,0.0,0.0,37,0.00,,,0.00,Wunderground v.1.15,2013-08-21 08:02:00,
2013-08-21 02:08:00,62.7,34.6,29.96,WSW,237,0.0,0.0,35,0.00,,,0.00,Wunderground v.1.15,2013-08-21 08:08:00,
2013-08-21 02:14:00,62.6,35.9,29.96,WSW,243,0.0,0.0,37,0.00,,,0.00,Wunderground v.1.15,2013-08-21 08:14:00,
2013-08-21 02:20:00,61.6,37.0,29.96,WSW,241,0.0,0.0,40,0.00,,,0.00,Wunderground v.1.15,2013-08-21 08:20:00,
2013-08-21 02:26:00,61.2,36.7,29.96,WSW,241,0.0,0.0,40,0.00,,,0.00,Wunderground v.1.15,2013-08-21 08:26:00,
2013-08-21 02:32:00,61.0,35.8,29.97,WSW,241,0.0,0.0,39,0.00,,,0.00,Wunderground v.1.15,2013-08-21 08:32:00,
2013-08-21 02:38:00,60.7,37.5,29.97,WSW,243,0.0,0.0,42,0.00,,,0.00,Wunderground v.1.15,2013-08-21 08:38:00,
2013-08-21 02:44:00,59.9,37.9,29.97,WSW,243,0.0,0.0,44,0.00,,,0.00,Wunderground v.1.15,2013-08-21 08:44:00,
2013-08-21 02:50:00,59.5,36.4,29.97,WSW,241,0.0,0.0,42,0.00,,,0.00,Wunderground v.1.15,2013-08-21 08:50:00,
2013-08-21 02:56:00,59.8,36.0,29.97,WSW,243,0.0,0.0,41,0.00,,,0.00,Wunderground v.1.15,2013-08-21 08:56:00,
2013-08-21 03:02:00,59.6,36.5,29.97,WSW,243,0.0,0.0,42,0.00,,,0.00,Wunderground v.1.15,2013-08-21 09:02:00,
2013-08-21 03:08:00,59.9,35.5,29.97,WSW,240,0.0,0.0,40,0.00,,,0.00,Wunderground v.1.15,2013-08-21 09:08:00,
2013-08-21 03:14:00,60.4,34.7,29.97,WSW,240,0.0,0.0,38,0.00,,,0.00,Wunderground v.1.15,2013-08-21 09:14:00,
2013-08-21 03:20:00,60.4,35.9,29.96,SW,229,0.0,0.0,40,0.00,,,0.00,Wunderground v.1.15,2013-08-21 09:20:00,
2013-08-21 03:26:00,60.4,35.3,29.96,SW,229,0.0,0.0,39,0.00,,,0.00,Wunderground v.1.15,2013-08-21 09:26:00,
2013-08-21 03:32:00,60.1,35.0,29.97,SW,229,0.0,0.0,39,0.00,,,0.00,Wunderground v.1.15,2013-08-21 09:32:00,
2013-08-21 03:38:00,59.6,35.2,29.97,SW,229,0.0,0.0,40,0.00,,,0.00,Wunderground v.1.15,2013-08-21 09:38:00,
2013-08-21 03:44:00,59.5,35.1,29.97,SW,229,0.0,0.0,40,0.00,,,0.00,Wunderground v.1.15,2013-08-21 09:44:00,
2013-08-21 03:50:00,59.2,35.5,29.97,SW,229,0.0,0.0,41,0.00,,,0.00,Wunderground v.1.15,2013-08-21 09:50:00,
2013-08-21 03:56:00,58.1,35.7,29.97,SW,229,0.0,0.0,43,0.00,,,0.00,Wunderground v.1.15,2013-08-21 09:56:00,
2013-08-21 04:02:00,58.0,35.6,29.98,SSW,208,0.0,0.0,43,0.00,,,0.00,Wunderground v.1.15,2013-08-21 10:02:00,
2013-08-21 04:08:00,58.0,35.0,29.98,South,179,0.0,0.0,42,0.00,,,0.00,Wunderground v.1.15,2013-08-21 10:08:00,
2013-08-21 04:14:00,58.6,35.0,29.98,South,179,0.0,0.0,41,0.00,,,0.00,Wunderground v.1.15,2013-08-21 10:14:00,
2013-08-21 04:20:00,58.1,35.1,29.98,South,179,0.0,0.0,42,0.00,,,0.00,Wunderground v.1.15,2013-08-21 10:20:00,
2013-08-21 04:26:00,56.9,35.2,29.98,South,188,0.0,0.0,44,0.00,,,0.00,Wunderground v.1.15,2013-08-21 10:26:00,
2013-08-21 04:32:00,56.0,35.5,29.98,South,189,0.0,0.0,46,0.00,,,0.00,Wunderground v.1.15,2013-08-21 10:32:00,
2013-08-21 04:38:00,55.9,35.9,29.98,South,189,0.0,0.0,47,0.00,,,0.00,Wunderground v.1.15,2013-08-21 10:38:00,
2013-08-21 04:44:00,56.2,35.7,29.98,South,181,0.0,0.0,46,0.00,,,0.00,Wunderground v.1.15,2013-08-21 10:44:00,
2013-08-21 04:50:00,55.9,35.9,29.98,South,181,0.0,0.0,47,0.00,,,0.00,Wunderground v.1.15,2013-08-21 10:50:00,
2013-08-21 04:56:00,55.6,35.7,29.98,South,181,0.0,0.0,47,0.00,,,0.00,Wunderground v.1.15,2013-08-21 10:56:00,
2013-08-21 05:02:00,55.4,35.5,30.00,South,181,0.0,0.0,47,0.00,,,0.00,Wunderground v.1.15,2013-08-21 11:02:00,
2013-08-21 05:08:00,55.4,35.5,30.00,South,181,0.0,0.0,47,0.00,,,0.00,Wunderground v.1.15,2013-08-21 11:08:00,
2013-08-21 05:14:00,55.1,35.2,30.00,South,181,0.0,0.0,47,0.00,,,0.00,Wunderground v.1.15,2013-08-21 11:14:00,
2013-08-21 05:20:00,55.0,35.1,30.00,South,181,0.0,0.0,47,0.00,,,0.00,Wunderground v.1.15,2013-08-21 11:20:00,
2013-08-21 05:26:00,54.7,35.4,30.00,South,181,0.0,0.0,48,0.00,,,0.00,Wunderground v.1.15,2013-08-21 11:26:00,
2013-08-21 05:32:00,54.2,35.4,30.01,South,181,0.0,0.0,49,0.00,,,0.00,Wunderground v.1.15,2013-08-21 11:32:00,
2013-08-21 05:38:00,53.3,35.6,30.01,South,181,0.0,0.0,51,0.00,,,0.00,Wunderground v.1.15,2013-08-21 11:38:00,
2013-08-21 05:44:00,53.5,35.3,30.01,South,181,0.0,0.0,50,0.00,,,0.00,Wunderground v.1.15,2013-08-21 11:44:00,
2013-08-21 05:50:00,53.8,35.1,30.02,South,181,0.0,0.0,49,0.00,,,0.00,Wunderground v.1.15,2013-08-21 11:50:00,
2013-08-21 05:56:00,53.8,34.6,30.02,South,181,0.0,0.0,48,0.00,,,0.00,Wunderground v.1.15,2013-08-21 11:56:00,
2013-08-21 06:02:00,53.6,34.9,30.02,South,181,0.0,0.0,49,0.00,,,0.00,Wunderground v.1.15,2013-08-21 12:02:00,
2013-08-21 06:08:00,53.3,34.6,30.02,South,188,0.0,0.0,49,0.00,,,0.00,Wunderground v.1.15,2013-08-21 12:08:00,
2013-08-21 06:14:00,53.2,35.0,30.02,South,188,0.0,0.0,50,0.00,,,0.00,Wunderground v.1.15,2013-08-21 12:14:00,
2013-08-21 06:20:00,52.9,34.8,30.04,South,188,0.0,0.0,50,0.00,,,0.00,Wunderground v.1.15,2013-08-21 12:20:00,
2013-08-21 06:26:00,52.8,35.2,30.04,South,188,0.0,0.0,51,0.00,,,0.00,Wunderground v.1.15,2013-08-21 12:26:00,
2013-08-21 06:32:00,52.5,35.4,30.05,South,188,0.0,0.0,52,0.00,,,0.00,Wunderground v.1.15,2013-08-21 12:32:00,
2013-08-21 06:38:00,51.7,35.6,30.05,South,188,0.0,0.0,54,0.00,,,0.00,Wunderground v.1.15,2013-08-21 12:38:00,
2013-08-21 06:44:00,51.4,35.8,30.05,South,188,0.0,0.0,55,0.00,,,0.00,Wunderground v.1.15,2013-08-21 12:44:00,
2013-08-21 06:50:00,51.4,35.3,30.06,South,188,0.0,0.0,54,0.00,,,0.00,Wunderground v.1.15,2013-08-21 12:50:00,
2013-08-21 06:56:00,51.9,35.3,30.06,South,179,0.0,0.0,53,0.00,,,0.00,Wunderground v.1.15,2013-08-21 12:56:00,
2013-08-21 07:02:00,52.8,35.2,30.06,SSE,165,0.0,2.0,51,0.00,,,0.00,Wunderground v.1.15,2013-08-21 13:02:00,
2013-08-21 07:08:00,53.3,35.1,30.06,South,172,1.0,4.0,50,0.00,,,0.00,Wunderground v.1.15,2013-08-21 13:08:00,
2013-08-21 07:14:00,53.8,34.6,30.06,South,178,1.0,3.0,48,0.00,,,0.00,Wunderground v.1.15,2013-08-21 13:14:00,
2013-08-21 07:20:00,54.2,34.9,30.07,SSW,196,2.0,2.0,48,0.00,,,0.00,Wunderground v.1.15,2013-08-21 13:20:00,
2013-08-21 07:26:00,54.5,35.2,30.07,SSW,196,1.0,2.0,48,0.00,,,0.00,Wunderground v.1.15,2013-08-21 13:26:00,
2013-08-21 07:32:00,55.0,35.7,30.07,SSW,196,0.0,0.0,48,0.00,,,0.00,Wunderground v.1.15,2013-08-21 13:32:00,
2013-08-21 07:38:00,55.3,35.9,30.07,SSW,196,0.0,0.0,48,0.00,,,0.00,Wunderground v.1.15,2013-08-21 13:38:00,
2013-08-21 07:44:00,55.6,35.7,30.07,SSW,196,0.0,0.0,47,0.00,,,0.00,Wunderground v.1.15,2013-08-21 13:44:00,
2013-08-21 07:50:00,56.3,36.3,30.07,SSW,196,0.0,0.0,47,0.00,,,0.00,Wunderground v.1.15,2013-08-21 13:50:00,
2013-08-21 12:56:00,78.3,33.9,30.03,North,0,3.0,7.0,20,0.00,,,0.00,Wunderground v.1.15,2013-08-21 18:56:00,
2013-08-21 13:02:00,78.6,34.2,30.03,NNW,346,4.0,4.0,20,0.00,,,0.00,Wunderground v.1.15,2013-08-21 19:02:00,
2013-08-21 13:08:00,78.8,31.7,30.03,NNE,13,2.0,7.0,18,0.00,,,0.00,Wunderground v.1.15,2013-08-21 19:08:00,
2013-08-21 13:14:00,78.8,31.7,30.03,NNW,336,1.0,1.0,18,0.00,,,0.00,Wunderground v.1.15,2013-08-21 19:14:00,
2013-08-21 13:20:00,79.0,31.9,30.03,North,357,1.0,1.0,18,0.00,,,0.00,Wunderground v.1.15,2013-08-21 19:20:00,
2013-08-21 13:26:00,79.4,32.2,30.03,NW,319,1.0,1.0,18,0.00,,,0.00,Wunderground v.1.15,2013-08-21 19:26:00,
2013-08-21 13:32:00,79.6,30.9,30.02,WNW,295,2.0,2.0,17,0.00,,,0.00,Wunderground v.1.15,2013-08-21 19:32:00,
2013-08-21 13:38:00,79.6,29.4,30.02,NNW,335,3.0,9.0,16,0.00,,,0.00,Wunderground v.1.15,2013-08-21 19:38:00,
2013-08-21 13:44:00,79.2,30.6,30.02,NW,323,3.0,4.0,17,0.00,,,0.00,Wunderground v.1.15,2013-08-21 19:44:00,
2013-08-21 13:50:00,79.9,28.1,30.02,NW,315,2.0,2.0,15,0.00,,,0.00,Wunderground v.1.15,2013-08-21 19:50:00,
2013-08-21 13:56:00,80.5,26.9,30.02,NW,319,1.0,2.0,14,0.00,,,0.00,Wunderground v.1.15,2013-08-21 19:56:00,
2013-08-21 14:02:00,80.5,30.2,30.01,North,354,0.0,1.0,16,0.00,,,0.00,Wunderground v.1.15,2013-08-21 20:02:00,
2013-08-21 14:08:00,81.4,30.9,30.01,North,0,0.0,1.0,16,0.00,,,0.00,Wunderground v.1.15,2013-08-21 20:08:00,
2013-08-21 14:14:00,81.8,29.6,30.01,NNW,333,0.0,0.0,15,0.00,,,0.00,Wunderground v.1.15,2013-08-21 20:14:00,
2013-08-21 14:20:00,81.6,31.0,30.01,NW,323,1.0,1.0,16,0.00,,,0.00,Wunderground v.1.15,2013-08-21 20:20:00,
2013-08-21 14:26:00,81.6,29.4,30.01,WNW,299,2.0,3.0,15,0.00,,,0.00,Wunderground v.1.15,2013-08-21 20:26:00,
2013-08-21 14:32:00,82.0,32.9,30.00,NNE,24,1.0,1.0,17,0.00,,,0.00,Wunderground v.1.15,2013-08-21 20:32:00,
2013-08-21 14:38:00,82.4,30.1,30.00,North,353,1.0,1.0,15,0.00,,,0.00,Wunderground v.1.15,2013-08-21 20:38:00,
2013-08-21 14:44:00,82.2,31.5,30.00,NNE,27,1.0,1.0,16,0.00,,,0.00,Wunderground v.1.15,2013-08-21 20:44:00,
2013-08-21 14:50:00,82.2,29.9,30.00,North,4,1.0,1.0,15,0.00,,,0.00,Wunderground v.1.15,2013-08-21 20:50:00,
2013-08-21 14:56:00,82.4,31.7,30.00,North,349,1.0,8.0,16,0.00,,,0.00,Wunderground v.1.15,2013-08-21 20:56:00,
2013-08-21 15:02:00,82.6,30.2,29.99,North,0,1.0,1.0,15,0.00,,,0.00,Wunderground v.1.15,2013-08-21 21:02:00,
2013-08-21 15:08:00,83.6,29.3,29.99,NNE,31,0.0,1.0,14,0.00,,,0.00,Wunderground v.1.15,2013-08-21 21:08:00,
2013-08-21 15:14:00,83.6,31.0,29.99,North,0,0.0,0.0,15,0.00,,,0.00,Wunderground v.1.15,2013-08-21 21:14:00,
2013-08-21 15:20:00,84.0,33.0,29.98,North,10,0.0,0.0,16,0.00,,,0.00,Wunderground v.1.15,2013-08-21 21:20:00,
2013-08-21 15:26:00,83.2,33.8,29.98,ENE,66,0.0,0.0,17,0.00,,,0.00,Wunderground v.1.15,2013-08-21 21:26:00,
2013-08-21 15:32:00,83.2,32.3,29.98,NE,55,0.0,0.0,16,0.00,,,0.00,Wunderground v.1.15,2013-08-21 21:32:00,
2013-08-21 15:38:00,84.3,33.2,29.98,NE,55,0.0,0.0,16,0.00,,,0.00,Wunderground v.1.15,2013-08-21 21:38:00,
2013-08-21 15:44:00,84.1,33.0,29.98,NE,54,0.0,0.0,16,0.00,,,0.00,Wunderground v.1.15,2013-08-21 21:44:00,
2013-08-21 15:50:00,84.7,31.9,29.97,North,357,0.0,0.0,15,0.00,,,0.00,Wunderground v.1.15,2013-08-21 21:50:00,
2013-08-21 15:56:00,85.3,34.0,29.97,NNW,343,0.0,0.0,16,0.00,,,0.00,Wunderground v.1.15,2013-08-21 21:56:00,
2013-08-21 16:02:00,84.9,33.7,29.97,North,0,0.0,0.0,16,0.00,,,0.00,Wunderground v.1.15,2013-08-21 22:02:00,
2013-08-21 16:08:00,85.1,32.2,29.97,North,352,0.0,0.0,15,0.00,,,0.00,Wunderground v.1.15,2013-08-21 22:08:00,
2013-08-21 16:14:00,85.3,32.4,29.97,NW,326,0.0,0.0,15,0.00,,,0.00,Wunderground v.1.15,2013-08-21 22:14:00,
2013-08-21 16:20:00,85.7,31.0,29.97,NNW,335,0.0,0.0,14,0.00,,,0.00,Wunderground v.1.15,2013-08-21 22:20:00,
2013-08-21 16:26:00,85.9,31.2,29.97,NNW,329,0.0,1.0,14,0.00,,,0.00,Wunderground v.1.15,2013-08-21 22:26:00,
2013-08-21 16:32:00,85.7,32.7,29.96,NW,320,0.0,0.0,15,0.00,,,0.00,Wunderground v.1.15,2013-08-21 22:32:00,
2013-08-21 16:38:00,85.9,31.2,29.96,North,1,0.0,0.0,14,0.00,,,0.00,Wunderground v.1.15,2013-08-21 22:38:00,
2013-08-21 16:44:00,85.9,31.2,29.96,NW,322,0.0,0.0,14,0.00,,,0.00,Wunderground v.1.15,2013-08-21 22:44:00,
2013-08-21 16:50:00,85.7,31.0,29.96,North,10,1.0,1.0,14,0.00,,,0.00,Wunderground v.1.15,2013-08-21 22:50:00,
2013-08-21 16:56:00,85.7,29.2,29.96,North,359,1.0,5.0,13,0.00,,,0.00,Wunderground v.1.15,2013-08-21 22:56:00,
2013-08-21 17:02:00,85.9,31.2,29.95,North,350,1.0,1.0,14,0.00,,,0.00,Wunderground v.1.15,2013-08-21 23:02:00,
2013-08-21 17:08:00,85.5,30.8,29.95,NNW,342,0.0,1.0,14,0.00,,,0.00,Wunderground v.1.15,2013-08-21 23:08:00,
2013-08-21 17:14:00,85.5,30.8,29.95,NNW,344,0.0,0.0,14,0.00,,,0.00,Wunderground v.1.15,2013-08-21 23:14:00,
2013-08-21 17:20:00,85.3,30.7,29.94,NW,312,0.0,0.0,14,0.00,,,0.00,Wunderground v.1.15,2013-08-21 23:20:00,
2013-08-21 17:26:00,85.1,28.7,29.94,NW,313,0.0,0.0,13,0.00,,,0.00,Wunderground v.1.15,2013-08-21 23:26:00,
2013-08-21 17:32:00,84.7,31.9,29.95,NW,309,0.0,0.0,15,0.00,,,0.00,Wunderground v.1.15,2013-08-21 23:32:00,
2013-08-21 17:38:00,84.9,30.4,29.95,WNW,282,2.0,4.0,14,0.00,,,0.00,Wunderground v.1.15,2013-08-21 23:38:00,
2013-08-21 17:44:00,85.5,30.8,29.95,NW,313,1.0,2.0,14,0.00,,,0.00,Wunderground v.1.15,2013-08-21 23:44:00,
2013-08-21 17:50:00,85.9,29.3,29.94,NW,312,0.0,0.0,13,0.00,,,0.00,Wunderground v.1.15,2013-08-21 23:50:00,
2013-08-21 17:56:00,85.9,31.2,29.94,NW,322,1.0,3.0,14,0.00,,,0.00,Wunderground v.1.15,2013-08-21 23:56:00,
2013-08-21 18:02:00,85.9,31.2,29.94,North,350,0.0,1.0,14,0.00,,,0.00,Wunderground v.1.15,2013-08-22 00:02:00,
2013-08-21 18:08:00,85.9,34.5,29.94,NW,316,0.0,1.0,16,0.00,,,0.00,Wunderground v.1.15,2013-08-22 00:08:00,
2013-08-21 18:14:00,85.9,31.2,29.94,NNW,330,0.0,0.0,14,0.00,,,0.00,Wunderground v.1.15,2013-08-22 00:14:00,
2013-08-21 18:20:00,85.9,29.3,29.95,NNW,344,0.0,0.0,13,0.00,,,0.00,Wunderground v.1.15,2013-08-22 00:20:00,
2013-08-21 18:26:00,85.7,31.0,29.95,NNW,340,1.0,1.0,14,0.00,,,0.00,Wunderground v.1.15,2013-08-22 00:26:00,
2013-08-21 18:32:00,85.7,32.7,29.94,NNW,330,0.0,0.0,15,0.00,,,0.00,Wunderground v.1.15,2013-08-22 00:32:00,
2013-08-21 18:38:00,85.7,31.0,29.94,NW,315,0.0,0.0,14,0.00,,,0.00,Wunderground v.1.15,2013-08-22 00:38:00,
2013-08-21 18:44:00,85.5,30.8,29.94,North,352,0.0,0.0,14,0.00,,,0.00,Wunderground v.1.15,2013-08-22 00:44:00,
2013-08-21 18:50:00,84.9,33.7,29.95,WNW,302,1.0,1.0,16,0.00,,,0.00,Wunderground v.1.15,2013-08-22 00:50:00,
2013-08-21 18:56:00,84.7,33.5,29.95,NW,318,1.0,3.0,16,0.00,,,0.00,Wunderground v.1.15,2013-08-22 00:56:00,
2013-08-21 19:02:00,84.5,34.9,29.94,NW,320,0.0,0.0,17,0.00,,,0.00,Wunderground v.1.15,2013-08-22 01:02:00,
2013-08-21 19:08:00,84.0,35.9,29.94,NW,316,1.0,7.0,18,0.00,,,0.00,Wunderground v.1.15,2013-08-22 01:08:00,
2013-08-21 19:14:00,83.4,35.4,29.94,NW,308,2.0,5.0,18,0.00,,,0.00,Wunderground v.1.15,2013-08-22 01:14:00,
2013-08-21 19:20:00,82.8,37.6,29.93,NW,320,1.0,1.0,20,0.00,,,0.00,Wunderground v.1.15,2013-08-22 01:20:00,
2013-08-21 19:26:00,81.6,37.9,29.93,NNW,330,1.0,3.0,21,0.00,,,0.00,Wunderground v.1.15,2013-08-22 01:26:00,
2013-08-21 19:32:00,80.3,39.1,29.94,NNW,328,1.0,1.0,23,0.00,,,0.00,Wunderground v.1.15,2013-08-22 01:32:00,
2013-08-21 19:38:00,79.4,39.4,29.94,North,349,0.0,1.0,24,0.00,,,0.00,Wunderground v.1.15,2013-08-22 01:38:00,
2013-08-21 19:44:00,78.5,37.6,29.94,North,359,0.0,0.0,23,0.00,,,0.00,Wunderground v.1.15,2013-08-22 01:44:00,
2013-08-21 19:50:00,78.1,38.4,29.95,NNW,332,0.0,0.0,24,0.00,,,0.00,Wunderground v.1.15,2013-08-22 01:50:00,
2013-08-21 19:56:00,77.7,39.1,29.95,NNW,337,0.0,0.0,25,0.00,,,0.00,Wunderground v.1.15,2013-08-22 01:56:00,
2013-08-21 20:02:00,77.4,37.8,29.96,NW,323,0.0,2.0,24,0.00,,,0.00,Wunderground v.1.15,2013-08-22 02:02:00,
2013-08-21 20:08:00,77.2,36.5,29.96,NW,318,2.0,7.0,23,0.00,,,0.00,Wunderground v.1.15,2013-08-22 02:08:00,
2013-08-21 20:14:00,76.7,36.1,29.96,NW,319,4.0,6.0,23,0.00,,,0.00,Wunderground v.1.15,2013-08-22 02:14:00,
2013-08-21 20:20:00,76.0,37.6,29.94,NW,315,2.0,2.0,25,0.00,,,0.00,Wunderground v.1.15,2013-08-22 02:20:00,
2013-08-21 20:26:00,75.6,36.2,29.94,NW,323,1.0,2.0,24,0.00,,,0.00,Wunderground v.1.15,2013-08-22 02:26:00,
2013-08-21 20:32:00,75.1,35.8,29.95,NW,322,1.0,1.0,24,0.00,,,0.00,Wunderground v.1.15,2013-08-22 02:32:00,
2013-08-21 20:38:00,74.7,35.5,29.95,NW,325,1.0,1.0,24,0.00,,,0.00,Wunderground v.1.15,2013-08-22 02:38:00,
2013-08-21 20:44:00,74.4,35.2,29.95,NW,304,1.0,3.0,24,0.00,,,0.00,Wunderground v.1.15,2013-08-22 02:44:00,
2013-08-21 20:50:00,73.5,36.5,29.96,WNW,294,1.0,1.0,26,0.00,,,0.00,Wunderground v.1.15,2013-08-22 02:50:00,
2013-08-21 20:56:00,72.5,36.6,29.96,WNW,289,0.0,1.0,27,0.00,,,0.00,Wunderground v.1.15,2013-08-22 02:56:00,
2013-08-21 21:02:00,71.5,36.7,29.98,WSW,257,0.0,0.0,28,0.00,,,0.00,Wunderground v.1.15,2013-08-22 03:02:00,
2013-08-21 21:08:00,70.3,35.6,29.98,SW,229,0.0,0.0,28,0.00,,,0.00,Wunderground v.1.15,2013-08-22 03:08:00,
2013-08-21 21:14:00,69.9,34.4,29.98,WNW,294,0.0,0.0,27,0.00,,,0.00,Wunderground v.1.15,2013-08-22 03:14:00,
2013-08-21 21:20:00,70.8,34.2,29.98,WNW,287,1.0,5.0,26,0.00,,,0.00,Wunderground v.1.15,2013-08-22 03:20:00,
2013-08-21 21:26:00,72.3,33.5,29.98,WNW,291,2.0,5.0,24,0.00,,,0.00,Wunderground v.1.15,2013-08-22 03:26:00,
2013-08-21 21:32:00,72.7,32.7,29.98,WNW,285,1.0,3.0,23,0.00,,,0.00,Wunderground v.1.15,2013-08-22 03:32:00,
2013-08-21 21:38:00,72.5,33.6,29.98,West,278,2.0,3.0,24,0.00,,,0.00,Wunderground v.1.15,2013-08-22 03:38:00,
2013-08-21 21:44:00,72.5,33.6,29.98,WNW,294,2.0,2.0,24,0.00,,,0.00,Wunderground v.1.15,2013-08-22 03:44:00,
2013-08-21 21:50:00,72.1,33.3,29.98,WNW,292,1.0,1.0,24,0.00,,,0.00,Wunderground v.1.15,2013-08-22 03:50:00,
2013-08-21 21:56:00,71.6,33.9,29.98,WNW,285,0.0,1.0,25,0.00,,,0.00,Wunderground v.1.15,2013-08-22 03:56:00,
2013-08-21 22:02:00,70.8,33.2,29.99,WNW,285,0.0,0.0,25,0.00,,,0.00,Wunderground v.1.15,2013-08-22 04:02:00,
2013-08-21 22:04:00,70.8,33.2,29.99,West,277,0.0,0.0,25,0.00,,,0.00,Wunderground v.1.15,2013-08-22 04:04:00,
2013-08-21 22:10:00,70.3,32.8,29.99,West,278,0.0,3.0,25,0.00,,,0.00,Wunderground v.1.15,2013-08-22 04:10:00,
2013-08-21 22:12:00,70.1,33.6,29.99,West,274,1.0,4.0,26,0.00,,,0.00,Wunderground v.1.15,2013-08-22 04:12:00,
2013-08-21 22:18:00,69.9,33.4,29.99,WNW,285,2.0,4.0,26,0.00,,,0.00,Wunderground v.1.15,2013-08-22 04:18:00,
2013-08-21 22:24:00,69.8,33.3,29.99,WNW,291,2.0,3.0,26,0.00,,,0.00,Wunderground v.1.15,2013-08-22 04:24:00,
2013-08-21 22:30:00,69.6,34.1,29.99,West,277,1.0,1.0,27,0.00,,,0.00,Wunderground v.1.15,2013-08-22 04:30:00,
2013-08-21 22:36:00,69.6,33.2,29.99,West,271,0.0,1.0,26,0.00,,,0.00,Wunderground v.1.15,2013-08-22 04:36:00,
2013-08-21 22:42:00,69.3,33.9,29.99,West,263,0.0,0.0,27,0.00,,,0.00,Wunderground v.1.15,2013-08-22 04:42:00,
2013-08-21 22:48:00,68.6,34.2,29.99,West,261,0.0,0.0,28,0.00,,,0.00,Wunderground v.1.15,2013-08-22 04:48:00,
2013-08-21 22:54:00,66.8,32.6,29.99,SW,229,0.0,0.0,28,0.00,,,0.00,Wunderground v.1.15,2013-08-22 04:54:00,
2013-08-21 23:00:00,66.3,31.3,30.02,SW,220,0.0,0.0,27,0.00,,,0.00,Wunderground v.1.15,2013-08-22 05:00:00,
2013-08-21 23:06:00,66.3,31.3,30.02,SW,220,0.0,0.0,27,0.00,,,0.00,Wunderground v.1.15,2013-08-22 05:06:00,
2013-08-21 23:12:00,66.1,31.1,30.02,SW,220,0.0,0.0,27,0.00,,,0.00,Wunderground v.1.15,2013-08-22 05:12:00,
2013-08-21 23:18:00,65.8,31.8,30.01,SW,220,0.0,0.0,28,0.00,,,0.00,Wunderground v.1.15,2013-08-22 05:18:00,
2013-08-21 23:24:00,66.0,31.0,30.01,SW,215,0.0,0.0,27,0.00,,,0.00,Wunderground v.1.15,2013-08-22 05:24:00,
2013-08-21 23:30:00,65.5,32.4,30.01,SSW,200,0.0,0.0,29,0.00,,,0.00,Wunderground v.1.15,2013-08-22 05:30:00,
2013-08-21 23:36:00,64.7,32.5,30.01,SSW,200,0.0,0.0,30,0.00,,,0.00,Wunderground v.1.15,2013-08-22 05:36:00,
2013-08-21 23:42:00,63.9,32.6,30.01,SSW,199,0.0,2.0,31,0.00,,,0.00,Wunderground v.1.15,2013-08-22 05:42:00,
2013-08-21 23:48:00,63.5,33.1,30.02,South,176,0.0,2.0,32,0.00,,,0.00,Wunderground v.1.15,2013-08-22 05:48:00,
2013-08-21 23:54:00,63.1,33.5,30.02,South,176,0.0,0.0,33,0.00,,,0.00,Wunderground v.1.15,2013-08-22 05:54:00,